sensor_id;sensor_type;location;lat;lon;timestamp;pressure;altitude;pressure_sealevel;temperature;humidity
3428;BME280;1727;42.624;23.406;2023-02-22T00:00:10;94830.72;;;9.17;57.56
3428;BME280;1727;42.624;23.406;2023-02-22T00:02:54;94833.84;;;9.11;57.77
3428;BME280;1727;42.624;23.406;2023-02-22T00:05:25;94829.94;;;9.06;57.50
3428;BME280;1727;42.624;23.406;2023-02-22T00:07:54;94845.50;;;9.07;57.07
3428;BME280;1727;42.624;23.406;2023-02-22T00:10:23;94842.06;;;9.07;57.19
3428;BME280;1727;42.624;23.406;2023-02-22T00:12:52;94837.28;;;9.12;57.49
3428;BME280;1727;42.624;23.406;2023-02-22T00:15:21;94839.78;;;9.13;57.22
3428;BME280;1727;42.624;23.406;2023-02-22T00:17:52;94839.66;;;9.15;57.03
3428;BME280;1727;42.624;23.406;2023-02-22T00:20:20;94838.94;;;9.13;57.03
3428;BME280;1727;42.624;23.406;2023-02-22T00:22:48;94838.25;;;9.11;57.00
3428;BME280;1727;42.624;23.406;2023-02-22T00:25:20;94833.50;;;9.05;57.54
3428;BME280;1727;42.624;23.406;2023-02-22T00:27:48;94835.78;;;8.98;57.97
3428;BME280;1727;42.624;23.406;2023-02-22T00:30:19;94830.19;;;8.91;58.02
3428;BME280;1727;42.624;23.406;2023-02-22T00:32:46;94830.19;;;8.91;57.56
3428;BME280;1727;42.624;23.406;2023-02-22T00:35:14;94824.59;;;8.85;58.12
3428;BME280;1727;42.624;23.406;2023-02-22T00:37:41;94822.94;;;8.84;58.18
3428;BME280;1727;42.624;23.406;2023-02-22T00:40:08;94819.63;;;8.82;58.25
3428;BME280;1727;42.624;23.406;2023-02-22T00:42:37;94819.03;;;8.78;58.25
3428;BME280;1727;42.624;23.406;2023-02-22T00:45:04;94822.03;;;8.74;58.21
3428;BME280;1727;42.624;23.406;2023-02-22T00:47:31;94812.63;;;8.71;58.45
3428;BME280;1727;42.624;23.406;2023-02-22T00:49:58;94811.56;;;8.74;59.18
3428;BME280;1727;42.624;23.406;2023-02-22T00:52:26;94811.56;;;8.74;58.37
3428;BME280;1727;42.624;23.406;2023-02-22T00:54:54;94820.22;;;8.74;58.22
3428;BME280;1727;42.624;23.406;2023-02-22T00:57:22;94804.66;;;8.73;59.22
3428;BME280;1727;42.624;23.406;2023-02-22T00:59:51;94801.56;;;8.79;58.68
3428;BME280;1727;42.624;23.406;2023-02-22T01:02:17;94803.09;;;8.81;59.17
3428;BME280;1727;42.624;23.406;2023-02-22T01:04:45;94802.97;;;8.83;59.23
3428;BME280;1727;42.624;23.406;2023-02-22T01:07:12;94795.59;;;8.88;57.94
3428;BME280;1727;42.624;23.406;2023-02-22T01:09:39;94799.97;;;8.87;58.29
3428;BME280;1727;42.624;23.406;2023-02-22T01:12:06;94792.25;;;8.86;58.79
3428;BME280;1727;42.624;23.406;2023-02-22T01:14:33;94792.75;;;8.80;58.18
3428;BME280;1727;42.624;23.406;2023-02-22T01:17:01;94784.69;;;8.72;58.53
3428;BME280;1727;42.624;23.406;2023-02-22T01:19:29;94784.44;;;8.63;58.64
3428;BME280;1727;42.624;23.406;2023-02-22T01:21:56;94774.94;;;8.62;59.12
3428;BME280;1727;42.624;23.406;2023-02-22T01:24:23;94778.75;;;8.58;58.56
3428;BME280;1727;42.624;23.406;2023-02-22T01:26:51;94777.53;;;8.62;59.38
3428;BME280;1727;42.624;23.406;2023-02-22T01:29:18;94778.25;;;8.64;59.38
3428;BME280;1727;42.624;23.406;2023-02-22T01:31:50;94782.06;;;8.72;59.21
3428;BME280;1727;42.624;23.406;2023-02-22T01:34:21;94776.47;;;8.76;58.63
3428;BME280;1727;42.624;23.406;2023-02-22T01:36:48;94776.34;;;8.78;58.63
3428;BME280;1727;42.624;23.406;2023-02-22T01:39:15;94779.41;;;8.83;58.07
3428;BME280;1727;42.624;23.406;2023-02-22T01:41:43;94775.59;;;8.87;58.87
3428;BME280;1727;42.624;23.406;2023-02-22T01:44:24;94771.53;;;8.94;57.83
3428;BME280;1727;42.624;23.406;2023-02-22T01:46:52;94773.19;;;8.95;57.46
3428;BME280;1727;42.624;23.406;2023-02-22T01:49:21;94773.44;;;8.92;57.72
3428;BME280;1727;42.624;23.406;2023-02-22T01:51:51;94775.09;;;8.93;57.16
3428;BME280;1727;42.624;23.406;2023-02-22T01:54:24;94776.09;;;8.81;56.85
3428;BME280;1727;42.624;23.406;2023-02-22T01:56:54;94783.25;;;8.79;58.07
3428;BME280;1727;42.624;23.406;2023-02-22T01:59:26;94777.78;;;8.71;57.39
3428;BME280;1727;42.624;23.406;2023-02-22T02:01:57;94777.53;;;8.74;57.92
3428;BME280;1727;42.624;23.406;2023-02-22T02:04:26;94779.09;;;8.76;57.79
3428;BME280;1727;42.624;23.406;2023-02-22T02:06:57;94772.19;;;8.75;58.59
3428;BME280;1727;42.624;23.406;2023-02-22T02:09:28;94777.09;;;8.68;58.75
3428;BME280;1727;42.624;23.406;2023-02-22T02:11:57;94770.19;;;8.67;58.45
3428;BME280;1727;42.624;23.406;2023-02-22T02:14:25;94782.78;;;8.74;57.80
3428;BME280;1727;42.624;23.406;2023-02-22T02:16:53;94779.44;;;8.72;57.63
3428;BME280;1727;42.624;23.406;2023-02-22T02:19:28;94783.47;;;8.76;58.67
3428;BME280;1727;42.624;23.406;2023-02-22T02:22:21;94785.16;;;8.77;57.15
3428;BME280;1727;42.624;23.406;2023-02-22T02:25:28;94786.81;;;8.78;58.29
3428;BME280;1727;42.624;23.406;2023-02-22T02:31:19;94784.31;;;8.76;58.53
3428;BME280;1727;42.624;23.406;2023-02-22T02:33:51;94788.47;;;8.79;58.31
3428;BME280;1727;42.624;23.406;2023-02-22T02:36:29;94798.22;;;8.65;57.83
3428;BME280;1727;42.624;23.406;2023-02-22T02:39:03;94792.41;;;8.62;57.96
3428;BME280;1727;42.624;23.406;2023-02-22T02:41:34;94801.31;;;8.59;58.05
3428;BME280;1727;42.624;23.406;2023-02-22T02:44:04;94809.19;;;8.48;58.16
3428;BME280;1727;42.624;23.406;2023-02-22T02:46:34;94812.53;;;8.39;58.82
3428;BME280;1727;42.624;23.406;2023-02-22T02:49:06;94806.81;;;8.34;58.49
3428;BME280;1727;42.624;23.406;2023-02-22T02:51:37;94805.22;;;8.31;58.64
3428;BME280;1727;42.624;23.406;2023-02-22T02:54:05;94806.53;;;8.26;58.50
3428;BME280;1727;42.624;23.406;2023-02-22T02:56:33;94803.44;;;8.21;58.39
3428;BME280;1727;42.624;23.406;2023-02-22T02:59:00;94808.44;;;8.24;59.00
3428;BME280;1727;42.624;23.406;2023-02-22T03:01:39;94809.84;;;8.28;59.05
3428;BME280;1727;42.624;23.406;2023-02-22T03:04:26;94815.91;;;8.28;59.16
3428;BME280;1727;42.624;23.406;2023-02-22T03:07:19;94815.56;;;8.22;59.56
3428;BME280;1727;42.624;23.406;2023-02-22T03:09:56;94807.25;;;8.17;60.10
3428;BME280;1727;42.624;23.406;2023-02-22T03:12:37;94806.16;;;8.08;60.21
3428;BME280;1727;42.624;23.406;2023-02-22T03:15:13;94810.06;;;8.02;61.07
3428;BME280;1727;42.624;23.406;2023-02-22T03:17:51;94807.69;;;7.99;60.93
3428;BME280;1727;42.624;23.406;2023-02-22T03:20:27;94804.59;;;7.94;61.02
3428;BME280;1727;42.624;23.406;2023-02-22T03:23:01;94800.91;;;7.86;61.21
3428;BME280;1727;42.624;23.406;2023-02-22T03:25:33;94806.56;;;7.80;61.11
3428;BME280;1727;42.624;23.406;2023-02-22T03:28:06;94808.81;;;7.73;61.42
3428;BME280;1727;42.624;23.406;2023-02-22T03:30:37;94805.50;;;7.71;61.84
3428;BME280;1727;42.624;23.406;2023-02-22T03:33:09;94804.66;;;7.70;62.07
3428;BME280;1727;42.624;23.406;2023-02-22T03:35:41;94812.38;;;7.72;61.99
3428;BME280;1727;42.624;23.406;2023-02-22T03:38:15;94805.72;;;7.68;61.62
3428;BME280;1727;42.624;23.406;2023-02-22T03:40:45;94805.97;;;7.65;62.11
3428;BME280;1727;42.624;23.406;2023-02-22T03:43:15;94802.63;;;7.63;62.01
3428;BME280;1727;42.624;23.406;2023-02-22T03:45:46;94811.66;;;7.70;62.78
3428;BME280;1727;42.624;23.406;2023-02-22T03:48:18;94814.41;;;7.68;62.70
3428;BME280;1727;42.624;23.406;2023-02-22T03:50:47;94816.94;;;7.81;63.27
3428;BME280;1727;42.624;23.406;2023-02-22T03:53:16;94812.63;;;7.80;62.32
3428;BME280;1727;42.624;23.406;2023-02-22T03:55:44;94804.72;;;7.93;62.74
3428;BME280;1727;42.624;23.406;2023-02-22T03:58:12;94800.69;;;8.00;61.99
3428;BME280;1727;42.624;23.406;2023-02-22T04:00:40;94805.66;;;7.92;60.94
3428;BME280;1727;42.624;23.406;2023-02-22T04:03:09;94805.06;;;7.88;61.08
3428;BME280;1727;42.624;23.406;2023-02-22T04:05:37;94805.06;;;7.88;61.08
3428;BME280;1727;42.624;23.406;2023-02-22T04:08:05;94807.91;;;7.85;61.14
3428;BME280;1727;42.624;23.406;2023-02-22T04:10:32;94794.16;;;8.05;63.80
3428;BME280;1727;42.624;23.406;2023-02-22T04:12:58;94805.47;;;8.28;63.32
3428;BME280;1727;42.624;23.406;2023-02-22T04:15:25;94807.06;;;8.42;62.92
3428;BME280;1727;42.624;23.406;2023-02-22T04:17:52;94804.91;;;8.47;60.97
3428;BME280;1727;42.624;23.406;2023-02-22T04:20:19;94805.88;;;8.46;59.54
3428;BME280;1727;42.624;23.406;2023-02-22T04:22:50;94803.84;;;8.38;59.47
3428;BME280;1727;42.624;23.406;2023-02-22T04:25:19;94817.34;;;8.21;59.50
3428;BME280;1727;42.624;23.406;2023-02-22T04:27:47;94814.25;;;8.27;59.70
3428;BME280;1727;42.624;23.406;2023-02-22T04:30:15;94823.41;;;8.33;59.47
3428;BME280;1727;42.624;23.406;2023-02-22T04:32:43;94820.00;;;8.44;59.43
3428;BME280;1727;42.624;23.406;2023-02-22T04:35:09;94819.19;;;8.43;58.62
3428;BME280;1727;42.624;23.406;2023-02-22T04:37:37;94823.69;;;8.41;58.74
3428;BME280;1727;42.624;23.406;2023-02-22T04:40:05;94817.34;;;8.32;58.59
3428;BME280;1727;42.624;23.406;2023-02-22T04:42:34;94816.16;;;8.25;59.26
3428;BME280;1727;42.624;23.406;2023-02-22T04:45:01;94827.16;;;7.95;59.98
3428;BME280;1727;42.624;23.406;2023-02-22T04:47:28;94824.66;;;7.94;59.96
3428;BME280;1727;42.624;23.406;2023-02-22T04:49:55;94832.75;;;7.91;60.53
3428;BME280;1727;42.624;23.406;2023-02-22T04:52:22;94818.59;;;7.82;60.36
3428;BME280;1727;42.624;23.406;2023-02-22T04:54:49;94817.13;;;7.78;60.83
3428;BME280;1727;42.624;23.406;2023-02-22T04:57:16;94814.75;;;7.75;60.75
3428;BME280;1727;42.624;23.406;2023-02-22T04:59:44;94817.00;;;7.68;61.02
3428;BME280;1727;42.624;23.406;2023-02-22T05:02:11;94820.81;;;7.64;60.89
3428;BME280;1727;42.624;23.406;2023-02-22T05:04:38;94810.81;;;7.58;61.27
3428;BME280;1727;42.624;23.406;2023-02-22T05:07:05;94810.22;;;7.55;61.53
3428;BME280;1727;42.624;23.406;2023-02-22T05:09:31;94814.91;;;7.50;62.48
3428;BME280;1727;42.624;23.406;2023-02-22T05:11:58;94816.94;;;7.46;61.94
3428;BME280;1727;42.624;23.406;2023-02-22T05:14:25;94818.69;;;7.34;61.88
3428;BME280;1727;42.624;23.406;2023-02-22T05:16:54;94825.59;;;7.23;62.48
3428;BME280;1727;42.624;23.406;2023-02-22T05:19:22;94834.81;;;6.92;63.47
3428;BME280;1727;42.624;23.406;2023-02-22T05:21:49;94832.41;;;6.89;64.43
3428;BME280;1727;42.624;23.406;2023-02-22T05:24:16;94830.53;;;6.91;64.08
3428;BME280;1727;42.624;23.406;2023-02-22T05:26:44;94840.97;;;6.91;63.84
3428;BME280;1727;42.624;23.406;2023-02-22T05:29:11;94847.28;;;6.75;64.35
3428;BME280;1727;42.624;23.406;2023-02-22T05:31:38;94851.38;;;6.54;64.63
3428;BME280;1727;42.624;23.406;2023-02-22T05:34:07;94855.47;;;6.33;65.07
3428;BME280;1727;42.624;23.406;2023-02-22T05:36:34;94849.31;;;6.46;66.26
3428;BME280;1727;42.624;23.406;2023-02-22T05:39:01;94853.53;;;7.09;64.89
3428;BME280;1727;42.624;23.406;2023-02-22T05:41:29;94853.94;;;8.10;62.04
3428;BME280;1727;42.624;23.406;2023-02-22T05:43:56;94850.03;;;8.94;58.65
3428;BME280;1727;42.624;23.406;2023-02-22T05:46:23;94863.66;;;9.95;55.59
3428;BME280;1727;42.624;23.406;2023-02-22T05:48:50;94865.47;;;10.97;52.01
3428;BME280;1727;42.624;23.406;2023-02-22T05:51:18;94860.81;;;11.10;51.08
3428;BME280;1727;42.624;23.406;2023-02-22T05:53:45;94861.91;;;12.06;49.13
3428;BME280;1727;42.624;23.406;2023-02-22T05:56:11;94868.34;;;12.97;47.46
3428;BME280;1727;42.624;23.406;2023-02-22T05:58:39;94868.78;;;13.75;44.83
3428;BME280;1727;42.624;23.406;2023-02-22T06:01:06;94871.44;;;14.36;43.18
3428;BME280;1727;42.624;23.406;2023-02-22T06:03:33;94863.44;;;14.98;42.85
3428;BME280;1727;42.624;23.406;2023-02-22T06:06:00;94860.59;;;15.25;40.67
3428;BME280;1727;42.624;23.406;2023-02-22T06:08:28;94874.25;;;15.46;40.25
3428;BME280;1727;42.624;23.406;2023-02-22T06:10:54;94868.31;;;15.53;40.65
3428;BME280;1727;42.624;23.406;2023-02-22T06:13:21;94867.06;;;15.65;40.83
3428;BME280;1727;42.624;23.406;2023-02-22T06:15:48;94861.47;;;15.76;40.99
3428;BME280;1727;42.624;23.406;2023-02-22T06:18:15;94863.13;;;15.85;40.60
3428;BME280;1727;42.624;23.406;2023-02-22T06:20:41;94858.88;;;16.00;39.46
3428;BME280;1727;42.624;23.406;2023-02-22T06:23:08;94852.91;;;16.15;41.06
3428;BME280;1727;42.624;23.406;2023-02-22T06:25:36;94852.91;;;16.31;41.06
3428;BME280;1727;42.624;23.406;2023-02-22T06:28:03;94854.41;;;16.25;40.09
3428;BME280;1727;42.624;23.406;2023-02-22T06:30:30;94849.94;;;16.01;42.39
3428;BME280;1727;42.624;23.406;2023-02-22T06:32:57;94843.97;;;15.91;44.94
3428;BME280;1727;42.624;23.406;2023-02-22T06:35:24;94843.25;;;15.65;40.45
3428;BME280;1727;42.624;23.406;2023-02-22T06:37:51;94848.28;;;15.34;41.48
3428;BME280;1727;42.624;23.406;2023-02-22T06:40:18;94852.09;;;15.39;41.30
3428;BME280;1727;42.624;23.406;2023-02-22T06:42:48;94856.72;;;15.37;41.03
3428;BME280;1727;42.624;23.406;2023-02-22T06:45:16;94853.44;;;15.52;41.97
3428;BME280;1727;42.624;23.406;2023-02-22T06:47:43;94851.22;;;15.81;41.55
3428;BME280;1727;42.624;23.406;2023-02-22T06:50:18;94847.28;;;16.01;40.31
3428;BME280;1727;42.624;23.406;2023-02-22T06:52:45;94854.72;;;16.06;39.68
3428;BME280;1727;42.624;23.406;2023-02-22T06:55:16;94858.53;;;15.37;41.01
3428;BME280;1727;42.624;23.406;2023-02-22T06:57:43;94861.69;;;13.93;45.57
3428;BME280;1727;42.624;23.406;2023-02-22T07:00:15;94867.50;;;13.79;45.42
3428;BME280;1727;42.624;23.406;2023-02-22T07:02:42;94860.63;;;13.86;44.79
3428;BME280;1727;42.624;23.406;2023-02-22T07:05:09;94868.81;;;13.47;44.63
3428;BME280;1727;42.624;23.406;2023-02-22T07:07:36;94875.38;;;13.43;44.69
3428;BME280;1727;42.624;23.406;2023-02-22T07:10:05;94872.78;;;12.96;45.37
3428;BME280;1727;42.624;23.406;2023-02-22T07:12:32;94867.03;;;13.11;44.71
3428;BME280;1727;42.624;23.406;2023-02-22T07:14:59;94868.34;;;13.34;44.82
3428;BME280;1727;42.624;23.406;2023-02-22T07:17:27;94866.34;;;13.18;44.55
3428;BME280;1727;42.624;23.406;2023-02-22T07:19:54;94866.94;;;13.40;45.18
3428;BME280;1727;42.624;23.406;2023-02-22T07:22:21;94875.41;;;12.59;45.80
3428;BME280;1727;42.624;23.406;2023-02-22T07:24:47;94877.44;;;12.75;45.84
3428;BME280;1727;42.624;23.406;2023-02-22T07:27:14;94873.66;;;12.87;45.95
3428;BME280;1727;42.624;23.406;2023-02-22T07:29:42;94878.88;;;12.97;45.72
3428;BME280;1727;42.624;23.406;2023-02-22T07:32:09;94879.84;;;13.06;45.66
3428;BME280;1727;42.624;23.406;2023-02-22T07:34:37;94874.09;;;13.20;45.63
3428;BME280;1727;42.624;23.406;2023-02-22T07:37:04;94865.75;;;13.24;46.29
3428;BME280;1727;42.624;23.406;2023-02-22T07:39:31;94870.19;;;13.24;45.84
3428;BME280;1727;42.624;23.406;2023-02-22T07:41:58;94859.09;;;13.30;45.05
3428;BME280;1727;42.624;23.406;2023-02-22T07:44:25;94860.91;;;13.20;45.46
3428;BME280;1727;42.624;23.406;2023-02-22T07:46:52;94860.19;;;13.27;46.72
3428;BME280;1727;42.624;23.406;2023-02-22T07:49:19;94864.06;;;13.33;46.29
3428;BME280;1727;42.624;23.406;2023-02-22T07:51:47;94861.56;;;13.31;46.71
3428;BME280;1727;42.624;23.406;2023-02-22T07:54:13;94866.03;;;13.21;46.78
3428;BME280;1727;42.624;23.406;2023-02-22T07:56:44;94855.69;;;13.00;47.44
3428;BME280;1727;42.624;23.406;2023-02-22T07:59:12;94850.22;;;13.21;48.09
3428;BME280;1727;42.624;23.406;2023-02-22T08:01:39;94854.50;;;13.32;47.28
3428;BME280;1727;42.624;23.406;2023-02-22T08:04:06;94854.50;;;13.32;47.15
3428;BME280;1727;42.624;23.406;2023-02-22T08:06:32;94850.72;;;13.35;46.88
3428;BME280;1727;42.624;23.406;2023-02-22T08:09:01;94846.53;;;13.42;46.04
3428;BME280;1727;42.624;23.406;2023-02-22T08:11:27;94850.88;;;13.51;46.09
3428;BME280;1727;42.624;23.406;2023-02-22T08:13:54;94855.72;;;13.55;45.83
3428;BME280;1727;42.624;23.406;2023-02-22T08:16:21;94844.34;;;13.55;46.25
3428;BME280;1727;42.624;23.406;2023-02-22T08:18:48;94843.75;;;13.79;46.01
3428;BME280;1727;42.624;23.406;2023-02-22T08:21:15;94848.56;;;14.01;45.36
3428;BME280;1727;42.624;23.406;2023-02-22T08:23:41;94846.81;;;14.10;45.71
3428;BME280;1727;42.624;23.406;2023-02-22T08:26:10;94851.22;;;14.19;45.79
3428;BME280;1727;42.624;23.406;2023-02-22T08:28:40;94848.94;;;14.24;45.10
3428;BME280;1727;42.624;23.406;2023-02-22T08:31:07;94848.78;;;14.25;44.85
3428;BME280;1727;42.624;23.406;2023-02-22T08:33:34;94848.19;;;14.14;44.71
3428;BME280;1727;42.624;23.406;2023-02-22T08:36:01;94843.66;;;14.06;45.11
3428;BME280;1727;42.624;23.406;2023-02-22T08:38:29;94840.34;;;14.04;45.25
3428;BME280;1727;42.624;23.406;2023-02-22T08:40:56;94841.03;;;14.06;45.17
3428;BME280;1727;42.624;23.406;2023-02-22T08:43:24;94838.59;;;14.31;45.31
3428;BME280;1727;42.624;23.406;2023-02-22T08:45:53;94827.63;;;14.43;44.80
3428;BME280;1727;42.624;23.406;2023-02-22T08:48:20;94834.19;;;14.57;47.32
3428;BME280;1727;42.624;23.406;2023-02-22T08:50:47;94830.38;;;14.85;44.30
3428;BME280;1727;42.624;23.406;2023-02-22T08:53:15;94832.78;;;15.05;44.11
3428;BME280;1727;42.624;23.406;2023-02-22T08:55:43;94826.59;;;15.30;44.27
3428;BME280;1727;42.624;23.406;2023-02-22T08:58:10;94828.97;;;15.58;43.33
3428;BME280;1727;42.624;23.406;2023-02-22T09:00:39;94826.00;;;15.53;42.62
3428;BME280;1727;42.624;23.406;2023-02-22T09:03:10;94817.81;;;15.72;42.21
3428;BME280;1727;42.624;23.406;2023-02-22T09:05:38;94821.94;;;15.83;42.67
3428;BME280;1727;42.624;23.406;2023-02-22T09:08:05;94816.50;;;15.84;41.61
3428;BME280;1727;42.624;23.406;2023-02-22T09:10:33;94823.97;;;15.97;41.85
3428;BME280;1727;42.624;23.406;2023-02-22T09:13:00;94810.72;;;16.13;41.35
3428;BME280;1727;42.624;23.406;2023-02-22T09:15:29;94811.22;;;16.25;42.01
3428;BME280;1727;42.624;23.406;2023-02-22T09:17:58;94809.06;;;16.28;41.88
3428;BME280;1727;42.624;23.406;2023-02-22T09:20:25;94811.19;;;16.41;41.46
3428;BME280;1727;42.624;23.406;2023-02-22T09:22:53;94805.22;;;16.47;41.20
3428;BME280;1727;42.624;23.406;2023-02-22T09:25:20;94806.22;;;16.54;41.34
3428;BME280;1727;42.624;23.406;2023-02-22T09:27:48;94805.19;;;16.63;41.05
3428;BME280;1727;42.624;23.406;2023-02-22T09:30:17;94797.75;;;16.75;42.25
3428;BME280;1727;42.624;23.406;2023-02-22T09:32:44;94805.13;;;16.96;42.20
3428;BME280;1727;42.624;23.406;2023-02-22T09:35:13;94800.09;;;17.17;40.39
3428;BME280;1727;42.624;23.406;2023-02-22T09:37:39;94791.84;;;17.12;40.04
3428;BME280;1727;42.624;23.406;2023-02-22T09:40:14;94795.00;;;17.08;40.00
3428;BME280;1727;42.624;23.406;2023-02-22T09:43:06;94794.63;;;17.19;42.42
3428;BME280;1727;42.624;23.406;2023-02-22T09:45:41;94795.88;;;17.31;39.84
3428;BME280;1727;42.624;23.406;2023-02-22T09:48:13;94796.66;;;17.40;38.94
3428;BME280;1727;42.624;23.406;2023-02-22T09:50:48;94790.56;;;17.31;41.32
3428;BME280;1727;42.624;23.406;2023-02-22T09:53:23;94787.44;;;17.27;39.63
3428;BME280;1727;42.624;23.406;2023-02-22T09:55:57;94787.44;;;17.27;39.07
3428;BME280;1727;42.624;23.406;2023-02-22T09:58:28;94787.59;;;17.26;39.57
3428;BME280;1727;42.624;23.406;2023-02-22T10:01:08;94780.66;;;17.25;39.95
3428;BME280;1727;42.624;23.406;2023-02-22T10:03:47;94770.75;;;17.19;39.42
3428;BME280;1727;42.624;23.406;2023-02-22T10:06:19;94770.88;;;17.25;39.92
3428;BME280;1727;42.624;23.406;2023-02-22T10:08:46;94766.22;;;17.27;39.81
3428;BME280;1727;42.624;23.406;2023-02-22T10:11:25;94771.16;;;17.30;39.31
3428;BME280;1727;42.624;23.406;2023-02-22T10:14:02;94763.91;;;17.24;39.28
3428;BME280;1727;42.624;23.406;2023-02-22T10:16:35;94754.31;;;17.23;38.73
3428;BME280;1727;42.624;23.406;2023-02-22T10:19:12;94747.19;;;17.24;38.72
3428;BME280;1727;42.624;23.406;2023-02-22T10:22:05;94741.16;;;17.30;38.90
3428;BME280;1727;42.624;23.406;2023-02-22T10:24:43;94731.03;;;17.33;38.27
3428;BME280;1727;42.624;23.406;2023-02-22T10:27:16;94737.50;;;17.39;41.46
3428;BME280;1727;42.624;23.406;2023-02-22T10:29:47;94735.22;;;17.28;38.38
3428;BME280;1727;42.624;23.406;2023-02-22T10:32:18;94721.00;;;17.21;38.34
3428;BME280;1727;42.624;23.406;2023-02-22T10:34:48;94712.69;;;17.24;38.60
3428;BME280;1727;42.624;23.406;2023-02-22T10:37:23;94707.03;;;17.27;39.58
3428;BME280;1727;42.624;23.406;2023-02-22T10:39:55;94705.34;;;17.34;38.97
3428;BME280;1727;42.624;23.406;2023-02-22T10:42:25;94706.00;;;17.36;38.64
3428;BME280;1727;42.624;23.406;2023-02-22T10:44:52;94700.28;;;17.24;38.33
3428;BME280;1727;42.624;23.406;2023-02-22T10:47:20;94698.31;;;17.18;39.05
3428;BME280;1727;42.624;23.406;2023-02-22T10:49:50;94693.91;;;17.11;39.13
3428;BME280;1727;42.624;23.406;2023-02-22T10:52:25;94689.94;;;17.07;39.88
3428;BME280;1727;42.624;23.406;2023-02-22T10:54:54;94679.34;;;17.07;39.11
3428;BME280;1727;42.624;23.406;2023-02-22T10:57:25;94683.97;;;17.04;38.68
3428;BME280;1727;42.624;23.406;2023-02-22T10:59:52;94681.31;;;17.04;39.16
3428;BME280;1727;42.624;23.406;2023-02-22T11:02:25;94673.88;;;17.08;39.53
3428;BME280;1727;42.624;23.406;2023-02-22T11:04:54;94668.22;;;17.11;39.04
3428;BME280;1727;42.624;23.406;2023-02-22T11:07:25;94674.81;;;17.15;39.29
3428;BME280;1727;42.624;23.406;2023-02-22T11:09:54;94668.50;;;17.16;38.73
3428;BME280;1727;42.624;23.406;2023-02-22T11:12:27;94668.16;;;17.19;39.13
3428;BME280;1727;42.624;23.406;2023-02-22T11:14:55;94672.09;;;17.23;38.31
3428;BME280;1727;42.624;23.406;2023-02-22T11:17:30;94664.44;;;17.28;38.43
3428;BME280;1727;42.624;23.406;2023-02-22T11:19:58;94665.72;;;17.32;37.94
3428;BME280;1727;42.624;23.406;2023-02-22T11:22:38;94662.56;;;17.37;37.78
3428;BME280;1727;42.624;23.406;2023-02-22T11:25:06;94665.69;;;17.41;37.46
3428;BME280;1727;42.624;23.406;2023-02-22T11:27:36;94659.09;;;17.37;38.79
3428;BME280;1727;42.624;23.406;2023-02-22T11:30:17;94655.53;;;17.44;37.80
3428;BME280;1727;42.624;23.406;2023-02-22T11:32:47;94652.34;;;17.49;38.30
3428;BME280;1727;42.624;23.406;2023-02-22T11:35:30;94647.97;;;17.56;37.21
3428;BME280;1727;42.624;23.406;2023-02-22T11:38:14;94632.84;;;17.64;37.96
3428;BME280;1727;42.624;23.406;2023-02-22T11:40:42;94635.25;;;17.74;38.02
3428;BME280;1727;42.624;23.406;2023-02-22T11:43:14;94630.88;;;17.81;37.00
3428;BME280;1727;42.624;23.406;2023-02-22T11:45:56;94632.97;;;17.86;35.94
3428;BME280;1727;42.624;23.406;2023-02-22T11:48:26;94635.81;;;17.84;35.64
3428;BME280;1727;42.624;23.406;2023-02-22T11:51:00;94633.34;;;17.83;35.01
3428;BME280;1727;42.624;23.406;2023-02-22T11:53:43;94642.13;;;17.83;35.36
3428;BME280;1727;42.624;23.406;2023-02-22T11:56:16;94631.16;;;17.86;36.65
3428;BME280;1727;42.624;23.406;2023-02-22T11:58:49;94618.34;;;17.90;37.80
3428;BME280;1727;42.624;23.406;2023-02-22T12:01:24;94621.00;;;17.90;37.32
3428;BME280;1727;42.624;23.406;2023-02-22T12:07:09;94612.31;;;17.96;39.14
3428;BME280;1727;42.624;23.406;2023-02-22T12:09:45;94613.78;;;17.99;37.66
3428;BME280;1727;42.624;23.406;2023-02-22T12:12:22;94612.41;;;18.03;36.87
3428;BME280;1727;42.624;23.406;2023-02-22T12:14:57;94603.81;;;18.01;37.41
3428;BME280;1727;42.624;23.406;2023-02-22T12:17:35;94611.50;;;17.95;37.20
3428;BME280;1727;42.624;23.406;2023-02-22T12:20:14;94605.38;;;17.95;36.94
3428;BME280;1727;42.624;23.406;2023-02-22T12:22:53;94608.22;;;17.93;38.04
3428;BME280;1727;42.624;23.406;2023-02-22T12:25:25;94600.75;;;17.89;36.97
3428;BME280;1727;42.624;23.406;2023-02-22T12:27:56;94595.09;;;17.92;36.95
3428;BME280;1727;42.624;23.406;2023-02-22T12:30:27;94594.63;;;17.88;37.23
3428;BME280;1727;42.624;23.406;2023-02-22T12:32:58;94590.13;;;17.89;37.11
3428;BME280;1727;42.624;23.406;2023-02-22T12:35:27;94587.78;;;17.94;36.83
3428;BME280;1727;42.624;23.406;2023-02-22T12:38:03;94587.94;;;17.92;37.94
3428;BME280;1727;42.624;23.406;2023-02-22T12:40:40;94585.22;;;18.01;36.65
3428;BME280;1727;42.624;23.406;2023-02-22T12:43:13;94583.94;;;18.11;37.99
3428;BME280;1727;42.624;23.406;2023-02-22T12:45:45;94581.28;;;18.11;35.49
3428;BME280;1727;42.624;23.406;2023-02-22T12:48:24;94580.81;;;18.08;35.30
3428;BME280;1727;42.624;23.406;2023-02-22T12:50:55;94576.34;;;18.08;36.33
3428;BME280;1727;42.624;23.406;2023-02-22T12:53:27;94574.78;;;18.14;35.67
3428;BME280;1727;42.624;23.406;2023-02-22T12:56:01;94570.09;;;18.16;37.91
3428;BME280;1727;42.624;23.406;2023-02-22T12:58:36;94569.91;;;18.17;36.74
3428;BME280;1727;42.624;23.406;2023-02-22T13:01:11;94567.38;;;18.24;36.98
3428;BME280;1727;42.624;23.406;2023-02-22T13:03:40;94562.94;;;18.31;36.49
3428;BME280;1727;42.624;23.406;2023-02-22T13:09:29;94563.31;;;18.28;35.62
3428;BME280;1727;42.624;23.406;2023-02-22T13:12:05;94567.81;;;18.27;35.89
3428;BME280;1727;42.624;23.406;2023-02-22T13:14:41;94571.84;;;18.23;35.90
3428;BME280;1727;42.624;23.406;2023-02-22T13:17:17;94566.88;;;18.20;36.02
3428;BME280;1727;42.624;23.406;2023-02-22T13:19:51;94564.41;;;18.19;36.10
3428;BME280;1727;42.624;23.406;2023-02-22T13:22:25;94568.06;;;18.18;35.97
3428;BME280;1727;42.624;23.406;2023-02-22T13:25:04;94561.75;;;18.19;36.14
3428;BME280;1727;42.624;23.406;2023-02-22T13:27:38;94558.28;;;18.18;36.10
3428;BME280;1727;42.624;23.406;2023-02-22T13:30:16;94560.75;;;18.20;35.81
3428;BME280;1727;42.624;23.406;2023-02-22T13:35:50;94554.97;;;18.16;35.88
3428;BME280;1727;42.624;23.406;2023-02-22T13:38:57;94554.63;;;18.19;36.37
3428;BME280;1727;42.624;23.406;2023-02-22T13:41:50;94559.09;;;18.19;35.57
3428;BME280;1727;42.624;23.406;2023-02-22T13:53:23;94549.06;;;18.00;35.23